createdAt,value
2017-03-09T00:00:04.532Z,0
2017-03-09T00:00:44.932Z,0
2017-03-09T00:01:25.345Z,0
2017-03-09T00:02:05.691Z,0
2017-03-09T00:02:46.113Z,0
2017-03-09T00:03:26.503Z,0
2017-03-09T00:04:06.875Z,0
2017-03-09T00:04:47.279Z,0
2017-03-09T00:05:27.684Z,0
2017-03-09T00:06:08.084Z,0
2017-03-09T00:06:48.487Z,0
2017-03-09T00:07:29.515Z,0
2017-03-09T00:08:09.933Z,0
2017-03-09T00:08:50.312Z,0
2017-03-09T00:09:30.696Z,0
2017-03-09T00:12:03.589Z,0
2017-03-09T00:12:43.995Z,0
2017-03-09T00:13:24.402Z,0
2017-03-09T00:14:05.546Z,0
2017-03-09T00:14:45.908Z,0
2017-03-09T00:15:26.316Z,0
2017-03-09T00:16:06.712Z,0
2017-03-09T00:16:47.112Z,0
2017-03-09T00:17:27.526Z,0
2017-03-09T00:19:40.172Z,0
2017-03-09T00:20:21.508Z,0
2017-03-09T00:21:02.886Z,0
2017-03-09T00:21:43.293Z,0
2017-03-09T00:22:23.691Z,0
2017-03-09T00:23:04.099Z,0
2017-03-09T00:23:44.509Z,0
2017-03-09T00:24:24.921Z,0
2017-03-09T00:25:05.314Z,0
2017-03-09T00:25:45.715Z,0
2017-03-09T00:26:26.131Z,0
2017-03-09T00:27:06.491Z,0
2017-03-09T00:27:46.888Z,0
2017-03-09T00:28:27.298Z,0
2017-03-09T00:29:07.720Z,0
2017-03-09T00:29:48.165Z,0
2017-03-09T00:30:28.610Z,0
2017-03-09T00:32:56.373Z,0
2017-03-09T00:33:36.764Z,0
2017-03-09T00:34:17.201Z,0
2017-03-09T00:34:57.600Z,0
2017-03-09T00:35:37.996Z,0
2017-03-09T00:36:18.430Z,0
2017-03-09T00:36:58.863Z,0
2017-03-09T00:37:39.228Z,0
2017-03-09T00:40:17.206Z,0
2017-03-09T00:40:57.666Z,0
2017-03-09T00:41:38.094Z,0
2017-03-09T00:42:18.556Z,0
2017-03-09T00:42:58.953Z,0
2017-03-09T00:43:39.308Z,0
2017-03-09T00:44:19.707Z,0
2017-03-09T00:45:00.116Z,0
2017-03-09T00:45:40.510Z,0
2017-03-09T00:46:21.014Z,0
2017-03-09T00:47:01.399Z,0
2017-03-09T00:47:41.793Z,0
2017-03-09T00:48:22.187Z,0
2017-03-09T00:49:02.561Z,0
2017-03-09T00:49:42.952Z,0
2017-03-09T00:50:23.327Z,0
2017-03-09T00:51:03.719Z,0
2017-03-09T00:51:44.130Z,0
2017-03-09T00:52:24.524Z,0
2017-03-09T00:53:04.949Z,0
2017-03-09T00:53:45.353Z,0
2017-03-09T00:54:25.753Z,0
2017-03-09T00:55:06.152Z,0
2017-03-09T00:55:47.461Z,0
2017-03-09T00:56:27.846Z,0
2017-03-09T00:57:08.244Z,0
2017-03-09T00:57:48.658Z,0
2017-03-09T00:58:29.067Z,0
2017-03-09T00:59:10.189Z,0
2017-03-09T00:59:50.566Z,0
2017-03-09T01:00:30.966Z,0
2017-03-09T01:01:11.363Z,0
2017-03-09T01:01:51.781Z,0
2017-03-09T01:02:32.190Z,0
2017-03-09T01:03:12.592Z,0
2017-03-09T01:03:52.997Z,0
2017-03-09T01:04:33.447Z,0
2017-03-09T01:05:13.840Z,0
2017-03-09T01:07:26.544Z,0
2017-03-09T01:08:07.003Z,0
2017-03-09T01:08:47.374Z,0
2017-03-09T01:11:05.102Z,0
2017-03-09T01:11:45.493Z,0
2017-03-09T01:12:25.931Z,0
2017-03-09T01:13:06.299Z,0
2017-03-09T01:13:47.641Z,0
2017-03-09T01:14:28.074Z,0
2017-03-09T01:15:08.500Z,0
2017-03-09T01:15:48.884Z,0
2017-03-09T01:16:29.269Z,0
2017-03-09T01:17:09.723Z,0
2017-03-09T01:17:50.117Z,0
2017-03-09T01:18:30.533Z,0
2017-03-09T01:19:10.944Z,0
2017-03-09T01:19:51.398Z,0
2017-03-09T01:20:31.830Z,0
2017-03-09T01:21:12.200Z,0
2017-03-09T01:21:52.578Z,0
2017-03-09T01:22:33.004Z,0
2017-03-09T01:23:13.384Z,0
2017-03-09T01:23:53.778Z,0
2017-03-09T01:24:34.217Z,0
2017-03-09T01:25:14.658Z,0
2017-03-09T01:25:55.096Z,0
2017-03-09T01:26:35.501Z,0
2017-03-09T01:29:08.416Z,0
2017-03-09T01:29:48.832Z,0
2017-03-09T01:30:29.251Z,0
2017-03-09T01:31:09.652Z,0
2017-03-09T01:31:50.074Z,0
2017-03-09T01:32:30.467Z,0
2017-03-09T01:33:10.870Z,0
2017-03-09T01:33:51.282Z,0
2017-03-09T01:34:31.725Z,0
2017-03-09T01:35:12.096Z,0
2017-03-09T01:35:52.493Z,0
2017-03-09T01:36:32.894Z,0
2017-03-09T01:37:13.315Z,0
2017-03-09T01:37:53.752Z,0
2017-03-09T01:38:34.074Z,0
2017-03-09T01:39:14.487Z,0
2017-03-09T01:39:54.940Z,0
2017-03-09T01:40:35.350Z,0
2017-03-09T01:41:15.773Z,0
2017-03-09T01:41:56.287Z,0
2017-03-09T01:42:37.524Z,0
2017-03-09T01:43:17.885Z,0
2017-03-09T01:43:58.306Z,0
2017-03-09T01:44:38.733Z,0
2017-03-09T01:45:19.118Z,0
2017-03-09T01:45:59.684Z,0
2017-03-09T01:46:40.864Z,0
2017-03-09T01:47:21.260Z,0
2017-03-09T01:48:01.713Z,0
2017-03-09T01:48:42.111Z,0
2017-03-09T01:49:22.493Z,0
2017-03-09T01:50:02.891Z,0
2017-03-09T01:50:43.947Z,0
2017-03-09T01:51:24.339Z,0
2017-03-09T01:52:04.722Z,0
2017-03-09T01:52:45.119Z,0
2017-03-09T01:53:25.491Z,0
2017-03-09T01:54:05.890Z,0
2017-03-09T01:54:46.308Z,0
2017-03-09T01:55:26.720Z,0
2017-03-09T01:56:07.125Z,0
2017-03-09T01:56:47.527Z,0
2017-03-09T01:57:27.973Z,0
2017-03-09T01:58:08.346Z,0
2017-03-09T01:58:48.758Z,0
2017-03-09T01:59:29.112Z,0
2017-03-09T02:00:09.506Z,0
2017-03-09T02:00:49.927Z,0
2017-03-09T02:01:30.367Z,0
2017-03-09T02:02:10.829Z,0
2017-03-09T02:02:51.232Z,0
2017-03-09T02:03:31.634Z,0
2017-03-09T02:04:12.042Z,0
2017-03-09T02:04:52.422Z,0
2017-03-09T02:05:33.163Z,0
2017-03-09T02:06:13.634Z,0
2017-03-09T02:06:54.012Z,0
2017-03-09T02:07:34.454Z,0
2017-03-09T02:08:14.863Z,0
2017-03-09T02:08:55.288Z,0
2017-03-09T02:09:35.731Z,0
2017-03-09T02:10:16.186Z,0
2017-03-09T02:10:56.638Z,0
2017-03-09T02:11:37.533Z,0
2017-03-09T02:12:17.912Z,0
2017-03-09T02:12:58.312Z,0
2017-03-09T02:13:38.697Z,0
2017-03-09T02:14:19.192Z,0
2017-03-09T02:14:59.581Z,0
2017-03-09T02:15:39.988Z,0
2017-03-09T02:17:52.666Z,0
2017-03-09T02:18:33.071Z,0
2017-03-09T02:19:13.459Z,0
2017-03-09T02:19:53.951Z,0
2017-03-09T02:20:34.316Z,0
2017-03-09T02:21:14.725Z,0
2017-03-09T02:21:55.083Z,0
2017-03-09T02:22:35.500Z,0
2017-03-09T02:23:15.900Z,0
2017-03-09T02:23:56.301Z,0
2017-03-09T02:24:36.702Z,0
2017-03-09T02:25:17.119Z,0
2017-03-09T02:25:57.526Z,0
2017-03-09T02:26:37.929Z,0
2017-03-09T02:27:18.336Z,0
2017-03-09T02:27:58.750Z,0
2017-03-09T02:28:39.185Z,0
2017-03-09T02:29:20.220Z,0
2017-03-09T02:30:00.668Z,0
2017-03-09T02:30:41.057Z,0
2017-03-09T02:31:21.454Z,0
2017-03-09T02:32:01.834Z,0
2017-03-09T02:32:42.211Z,0
2017-03-09T02:33:22.616Z,0
2017-03-09T02:34:03.002Z,0
2017-03-09T02:34:43.420Z,0
2017-03-09T02:35:23.830Z,0
2017-03-09T02:36:04.231Z,0
2017-03-09T02:36:44.647Z,0
2017-03-09T02:37:25.065Z,0
2017-03-09T02:38:05.477Z,0
2017-03-09T02:38:45.879Z,0
2017-03-09T02:39:26.274Z,0
2017-03-09T02:40:06.661Z,0
2017-03-09T02:40:47.036Z,0
2017-03-09T02:41:27.404Z,0
2017-03-09T02:42:07.809Z,0
2017-03-09T02:42:48.220Z,0
2017-03-09T02:43:28.620Z,0
2017-03-09T02:44:09.031Z,0
2017-03-09T02:44:49.441Z,0
2017-03-09T02:45:29.874Z,0
2017-03-09T02:46:10.290Z,0
2017-03-09T02:46:50.646Z,0
2017-03-09T02:47:31.050Z,0
2017-03-09T02:48:11.455Z,0
2017-03-09T02:48:51.849Z,0
2017-03-09T02:49:32.267Z,0
2017-03-09T02:50:12.632Z,0
2017-03-09T02:50:53.019Z,0
2017-03-09T02:51:33.423Z,0
2017-03-09T02:52:13.803Z,0
2017-03-09T02:52:54.211Z,0
2017-03-09T02:53:34.617Z,0
2017-03-09T02:54:14.998Z,0
2017-03-09T02:54:55.381Z,0
2017-03-09T02:55:35.773Z,0
2017-03-09T02:56:16.149Z,0
2017-03-09T02:56:56.538Z,0
2017-03-09T02:57:36.897Z,0
2017-03-09T02:58:17.294Z,0
2017-03-09T02:58:57.706Z,0
2017-03-09T02:59:38.077Z,0
2017-03-09T03:00:18.474Z,0
2017-03-09T03:00:58.890Z,0
2017-03-09T03:01:39.279Z,0
2017-03-09T03:02:19.655Z,0
2017-03-09T03:03:00.047Z,0
2017-03-09T03:03:41.435Z,0
2017-03-09T03:04:21.839Z,0
2017-03-09T03:05:02.208Z,0
2017-03-09T03:05:42.601Z,0
2017-03-09T03:06:23.025Z,0
2017-03-09T03:07:03.408Z,0
2017-03-09T03:07:43.831Z,0
2017-03-09T03:08:24.194Z,0
2017-03-09T03:09:04.581Z,0
2017-03-09T03:09:44.982Z,0
2017-03-09T03:10:25.447Z,0
2017-03-09T03:11:05.833Z,0
2017-03-09T03:11:46.217Z,0
2017-03-09T03:12:26.610Z,0
2017-03-09T03:13:07.009Z,0
2017-03-09T03:13:47.376Z,0
2017-03-09T03:14:27.790Z,0
2017-03-09T03:15:08.186Z,0
2017-03-09T03:15:48.587Z,0
2017-03-09T03:16:28.972Z,0
2017-03-09T03:17:09.362Z,0
2017-03-09T03:17:49.768Z,0
2017-03-09T03:18:30.158Z,0
2017-03-09T03:19:10.592Z,0
2017-03-09T03:19:51.041Z,0
2017-03-09T03:20:31.450Z,0
2017-03-09T03:21:11.810Z,0
2017-03-09T03:21:52.222Z,0
2017-03-09T03:22:32.604Z,0
2017-03-09T03:23:12.968Z,0
2017-03-09T03:23:53.381Z,0
2017-03-09T03:24:33.783Z,0
2017-03-09T03:25:14.196Z,0
2017-03-09T03:25:54.617Z,0
2017-03-09T03:26:34.985Z,0
2017-03-09T03:27:15.406Z,0
2017-03-09T03:27:55.871Z,0
2017-03-09T03:28:36.253Z,0
2017-03-09T03:29:16.647Z,0
2017-03-09T03:29:57.010Z,0
2017-03-09T03:30:37.442Z,0
2017-03-09T03:31:17.856Z,0
2017-03-09T03:31:58.222Z,0
2017-03-09T03:32:38.634Z,0
2017-03-09T03:33:19.029Z,0
2017-03-09T03:33:59.437Z,0
2017-03-09T03:34:39.845Z,0
2017-03-09T03:35:20.244Z,0
2017-03-09T03:36:00.660Z,0
2017-03-09T03:36:41.065Z,0
2017-03-09T03:37:21.476Z,0
2017-03-09T03:38:01.839Z,0
2017-03-09T03:38:42.232Z,0
2017-03-09T03:39:22.645Z,0
2017-03-09T03:40:03.043Z,0
2017-03-09T03:40:43.502Z,0
2017-03-09T03:41:23.904Z,0
2017-03-09T03:42:04.399Z,0
2017-03-09T03:42:44.819Z,0
2017-03-09T03:43:25.197Z,0
2017-03-09T03:44:05.594Z,0
2017-03-09T03:44:46.067Z,0
2017-03-09T03:45:26.455Z,0
2017-03-09T03:46:06.828Z,0
2017-03-09T03:46:47.246Z,0
2017-03-09T03:47:27.635Z,0
2017-03-09T03:48:08.001Z,0
2017-03-09T03:48:48.399Z,0
2017-03-09T03:49:28.792Z,0
2017-03-09T03:50:09.197Z,0
2017-03-09T03:50:49.631Z,0
2017-03-09T03:51:30.027Z,0
2017-03-09T03:52:10.431Z,0
2017-03-09T03:52:50.834Z,0
2017-03-09T03:53:31.256Z,0
2017-03-09T03:56:09.261Z,0
2017-03-09T03:56:49.641Z,0
2017-03-09T03:57:30.041Z,0
2017-03-09T03:58:10.412Z,0
2017-03-09T03:58:50.828Z,0
2017-03-09T03:59:31.184Z,0
2017-03-09T04:00:11.579Z,0
2017-03-09T04:00:51.980Z,0
2017-03-09T04:01:32.386Z,0
2017-03-09T04:02:12.801Z,0
2017-03-09T04:04:25.469Z,0
2017-03-09T04:05:05.886Z,0
2017-03-09T04:05:46.295Z,0
2017-03-09T04:06:26.742Z,0
2017-03-09T04:07:07.170Z,0
2017-03-09T04:07:47.568Z,0
2017-03-09T04:08:27.963Z,0
2017-03-09T04:09:08.378Z,0
2017-03-09T04:09:48.791Z,0
2017-03-09T04:10:29.187Z,0
2017-03-09T04:11:09.609Z,0
2017-03-09T04:11:50.009Z,0
2017-03-09T04:12:30.411Z,0
2017-03-09T04:13:10.820Z,0
2017-03-09T04:13:51.230Z,0
2017-03-09T04:14:31.625Z,0
2017-03-09T04:15:12.009Z,0
2017-03-09T04:15:52.396Z,0
2017-03-09T04:16:32.822Z,0
2017-03-09T04:18:50.569Z,0
2017-03-09T04:19:30.978Z,0
2017-03-09T04:20:11.527Z,0
2017-03-09T04:20:51.933Z,0
2017-03-09T04:21:33.558Z,0
2017-03-09T04:23:46.211Z,0
2017-03-09T04:24:28.707Z,0
2017-03-09T04:26:41.362Z,0
2017-03-09T04:27:21.780Z,0
2017-03-09T04:28:02.210Z,0
2017-03-09T04:28:42.631Z,0
2017-03-09T04:29:22.995Z,0
2017-03-09T04:30:04.698Z,0
2017-03-09T04:30:45.938Z,0
2017-03-09T04:31:27.202Z,0
2017-03-09T04:32:08.307Z,0
2017-03-09T04:32:48.828Z,0
2017-03-09T04:33:29.224Z,0
2017-03-09T04:34:09.589Z,0
2017-03-09T04:34:49.982Z,0
2017-03-09T04:35:30.378Z,0
2017-03-09T04:36:10.757Z,0
2017-03-09T04:36:51.175Z,0
2017-03-09T04:37:31.569Z,0
2017-03-09T04:38:11.955Z,0
2017-03-09T04:38:52.632Z,0
2017-03-09T04:39:33.026Z,0
2017-03-09T04:41:51.081Z,0
2017-03-09T04:42:31.510Z,0
2017-03-09T04:43:11.929Z,0
2017-03-09T04:43:52.339Z,0
2017-03-09T04:44:32.748Z,0
2017-03-09T04:45:13.158Z,0
2017-03-09T04:45:53.549Z,0
2017-03-09T04:46:33.966Z,0
2017-03-09T04:47:14.327Z,0
2017-03-09T04:47:54.745Z,0
2017-03-09T04:48:35.170Z,0
2017-03-09T04:49:15.597Z,0
2017-03-09T04:49:55.971Z,0
2017-03-09T04:50:36.360Z,0
2017-03-09T04:51:16.789Z,0
2017-03-09T04:51:57.218Z,0
2017-03-09T04:52:38.365Z,0
2017-03-09T04:53:19.120Z,0
2017-03-09T04:53:59.556Z,0
2017-03-09T04:56:17.332Z,0
2017-03-09T04:56:57.780Z,0
2017-03-09T04:57:38.249Z,0
2017-03-09T04:58:18.658Z,0
2017-03-09T04:58:59.086Z,0
2017-03-09T04:59:39.499Z,0
2017-03-09T05:00:19.884Z,0
2017-03-09T05:01:00.308Z,0
2017-03-09T05:01:40.738Z,0
2017-03-09T05:02:21.120Z,0
2017-03-09T05:04:33.790Z,0
2017-03-09T05:05:14.242Z,0
2017-03-09T05:05:54.662Z,0
2017-03-09T05:06:35.108Z,0
2017-03-09T05:07:15.567Z,0
2017-03-09T05:07:55.943Z,0
2017-03-09T05:08:36.332Z,0
2017-03-09T05:09:16.745Z,0
2017-03-09T05:09:57.128Z,0
2017-03-09T05:10:37.507Z,0
2017-03-09T05:11:17.909Z,0
2017-03-09T05:11:58.304Z,0
2017-03-09T05:12:38.709Z,0
2017-03-09T05:13:19.077Z,0
2017-03-09T05:13:59.501Z,0
2017-03-09T05:14:39.876Z,0
2017-03-09T05:15:20.292Z,0
2017-03-09T05:16:00.715Z,0
2017-03-09T05:16:41.121Z,0
2017-03-09T05:17:21.521Z,0
2017-03-09T05:18:01.911Z,0
2017-03-09T05:18:42.366Z,0
2017-03-09T05:19:22.785Z,0
2017-03-09T05:20:03.153Z,0
2017-03-09T05:20:43.571Z,0
2017-03-09T05:21:23.954Z,0
2017-03-09T05:22:04.379Z,0
2017-03-09T05:22:44.752Z,0
2017-03-09T05:23:25.123Z,0
2017-03-09T05:24:05.537Z,0
2017-03-09T05:24:45.942Z,0
2017-03-09T05:25:26.341Z,0
2017-03-09T05:26:06.759Z,0
2017-03-09T05:26:47.162Z,0
2017-03-09T05:27:27.549Z,0
2017-03-09T05:28:07.965Z,0
2017-03-09T05:28:49.317Z,0
2017-03-09T05:29:29.717Z,0
2017-03-09T05:30:10.144Z,0
2017-03-09T05:30:50.523Z,0
2017-03-09T05:31:30.957Z,0
2017-03-09T05:32:11.357Z,0
2017-03-09T05:32:51.750Z,0
2017-03-09T05:33:32.148Z,0
2017-03-09T05:34:12.567Z,0
2017-03-09T05:34:52.969Z,0
2017-03-09T05:35:33.379Z,0
2017-03-09T05:36:14.357Z,0
2017-03-09T05:36:54.771Z,0
2017-03-09T05:37:35.200Z,0
2017-03-09T05:38:15.620Z,0
2017-03-09T05:38:56.025Z,0
2017-03-09T05:39:36.433Z,0
2017-03-09T05:40:16.833Z,0
2017-03-09T05:40:57.239Z,0
2017-03-09T05:41:37.604Z,0
2017-03-09T05:42:18.014Z,0
2017-03-09T05:42:58.421Z,0
2017-03-09T05:43:38.810Z,0
2017-03-09T05:44:19.194Z,0
2017-03-09T05:44:59.595Z,0
2017-03-09T05:47:32.502Z,0
2017-03-09T05:48:12.915Z,0
2017-03-09T05:48:53.344Z,0
2017-03-09T05:49:33.757Z,0
2017-03-09T05:50:14.190Z,0
2017-03-09T05:50:54.597Z,0
2017-03-09T05:51:35.010Z,0
2017-03-09T05:52:15.416Z,0
2017-03-09T05:52:55.817Z,0
2017-03-09T05:53:36.219Z,0
2017-03-09T05:54:16.620Z,0
2017-03-09T05:54:57.094Z,0
2017-03-09T05:55:37.493Z,0
2017-03-09T05:56:17.921Z,0
2017-03-09T05:56:58.356Z,0
2017-03-09T05:57:38.734Z,0
2017-03-09T05:58:19.165Z,0
2017-03-09T05:58:59.575Z,0
2017-03-09T05:59:40.059Z,0
2017-03-09T06:00:20.463Z,0
2017-03-09T06:01:00.857Z,0
2017-03-09T06:01:41.246Z,0
2017-03-09T06:02:21.674Z,0
2017-03-09T06:03:02.067Z,0
2017-03-09T06:05:19.838Z,5
2017-03-09T06:06:00.218Z,5
2017-03-09T06:06:40.642Z,5
2017-03-09T06:07:21.100Z,5
2017-03-09T06:08:01.510Z,5
2017-03-09T06:08:41.905Z,5
2017-03-09T06:09:22.296Z,5
2017-03-09T06:10:02.692Z,5
2017-03-09T06:10:43.104Z,5
2017-03-09T06:11:23.468Z,5
2017-03-09T06:12:03.903Z,5
2017-03-09T06:12:44.349Z,5
2017-03-09T06:15:02.096Z,5
2017-03-09T06:15:42.524Z,5
2017-03-09T06:16:22.943Z,5
2017-03-09T06:17:03.370Z,5
2017-03-09T06:17:43.754Z,5
2017-03-09T06:18:24.156Z,5
2017-03-09T06:19:04.572Z,10
2017-03-09T06:19:45.119Z,15
2017-03-09T06:20:25.568Z,15
2017-03-09T06:21:05.941Z,20
2017-03-09T06:21:46.322Z,20
2017-03-09T06:24:14.114Z,25
2017-03-09T06:24:54.547Z,25
2017-03-09T06:25:34.968Z,25
2017-03-09T06:26:15.360Z,25
2017-03-09T06:26:55.784Z,25
2017-03-09T06:27:36.167Z,25
2017-03-09T06:30:14.207Z,25
2017-03-09T06:30:54.698Z,25
2017-03-09T06:31:35.039Z,30
2017-03-09T06:32:15.470Z,30
2017-03-09T06:32:55.937Z,30
2017-03-09T06:33:36.339Z,30
2017-03-09T06:34:16.772Z,25
2017-03-09T06:34:57.184Z,25
2017-03-09T06:35:37.574Z,20
2017-03-09T06:36:18.009Z,15
2017-03-09T06:38:50.974Z,20
2017-03-09T06:39:31.370Z,20
2017-03-09T06:40:11.782Z,20
2017-03-09T06:40:52.206Z,20
2017-03-09T06:41:32.634Z,20
2017-03-09T06:42:13.078Z,20
2017-03-09T06:42:53.536Z,25
2017-03-09T06:43:33.946Z,25
2017-03-09T06:44:14.408Z,30
2017-03-09T06:46:47.419Z,30
2017-03-09T06:47:27.816Z,35
2017-03-09T06:48:08.236Z,45
2017-03-09T06:48:48.661Z,50
2017-03-09T06:49:29.070Z,50
2017-03-09T06:50:09.477Z,50
2017-03-09T06:50:49.898Z,55
2017-03-09T06:51:30.296Z,50
2017-03-09T06:52:10.692Z,50
2017-03-09T06:52:51.088Z,45
2017-03-09T06:53:31.515Z,45
2017-03-09T06:55:59.361Z,35
2017-03-09T06:56:39.770Z,35
2017-03-09T06:57:20.203Z,40
2017-03-09T06:58:00.617Z,40
2017-03-09T06:58:41.061Z,40
2017-03-09T06:59:21.509Z,45
2017-03-09T07:00:01.944Z,55
2017-03-09T07:00:42.378Z,65
2017-03-09T07:01:22.781Z,75
2017-03-09T07:02:03.186Z,80
2017-03-09T07:02:43.893Z,90
2017-03-09T07:03:24.353Z,90
2017-03-09T07:06:02.359Z,95
2017-03-09T07:06:42.786Z,90
2017-03-09T07:07:23.219Z,90
2017-03-09T07:08:05.910Z,90
2017-03-09T07:09:03.849Z,85
2017-03-09T07:09:42.909Z,80
2017-03-09T07:12:20.911Z,95
2017-03-09T07:13:01.370Z,95
2017-03-09T07:13:41.789Z,100
2017-03-09T07:14:22.185Z,95
2017-03-09T07:15:02.598Z,100
2017-03-09T07:15:43.022Z,95
2017-03-09T07:16:23.459Z,85
2017-03-09T07:18:41.198Z,65
2017-03-09T07:19:21.677Z,50
2017-03-09T07:20:02.105Z,50
2017-03-09T07:20:42.469Z,50
2017-03-09T07:21:22.896Z,55
2017-03-09T07:22:03.362Z,60
2017-03-09T07:22:43.743Z,60
2017-03-09T07:23:24.154Z,65
2017-03-09T07:24:04.528Z,65
2017-03-09T07:24:44.966Z,60
2017-03-09T07:25:25.360Z,60
2017-03-09T07:26:05.767Z,65
2017-03-09T07:26:46.177Z,65
2017-03-09T07:27:26.597Z,65
2017-03-09T07:29:54.417Z,50
2017-03-09T07:30:34.877Z,55
2017-03-09T07:31:15.354Z,55
2017-03-09T07:31:55.709Z,65
2017-03-09T07:32:36.146Z,65
2017-03-09T07:33:16.707Z,60
2017-03-09T07:33:57.003Z,55
2017-03-09T07:34:37.430Z,55
2017-03-09T07:35:17.785Z,55
2017-03-09T07:37:30.436Z,55
2017-03-09T07:38:10.870Z,60
2017-03-09T07:38:51.316Z,55
2017-03-09T07:39:31.785Z,55
2017-03-09T07:40:12.217Z,55
2017-03-09T07:40:52.648Z,50
2017-03-09T07:43:10.433Z,50
2017-03-09T07:43:50.851Z,55
2017-03-09T07:44:31.294Z,60
2017-03-09T07:45:11.725Z,50
2017-03-09T07:45:52.163Z,45
2017-03-09T07:46:35.526Z,45
2017-03-09T07:47:15.960Z,45
2017-03-09T07:47:56.318Z,40
2017-03-09T07:48:36.692Z,40
2017-03-09T07:49:17.159Z,40
2017-03-09T07:49:57.548Z,35
2017-03-09T07:50:37.954Z,35
2017-03-09T07:51:18.409Z,30
2017-03-09T07:51:58.757Z,30
2017-03-09T07:52:39.159Z,30
2017-03-09T07:53:19.587Z,30
2017-03-09T07:54:00.026Z,30
2017-03-09T07:54:40.412Z,25
2017-03-09T07:55:20.826Z,20
2017-03-09T07:56:01.226Z,20
2017-03-09T07:56:41.687Z,20
2017-03-09T07:57:22.142Z,25
2017-03-09T07:58:02.563Z,25
2017-03-09T07:58:42.952Z,30
2017-03-09T07:59:23.485Z,40
2017-03-09T08:00:03.817Z,40
2017-03-09T08:00:44.250Z,40
2017-03-09T08:01:26.571Z,35
2017-03-09T08:02:06.252Z,30
2017-03-09T08:02:47.522Z,30
2017-03-09T08:03:27.923Z,25
2017-03-09T08:04:08.486Z,25
2017-03-09T08:04:48.911Z,30
2017-03-09T08:05:29.367Z,30
2017-03-09T08:06:09.814Z,40
2017-03-09T08:08:22.467Z,50
2017-03-09T08:09:02.914Z,50
2017-03-09T08:09:43.373Z,50
2017-03-09T08:10:23.828Z,45
2017-03-09T08:11:04.216Z,45
2017-03-09T08:11:44.612Z,40
2017-03-09T08:12:25.011Z,45
2017-03-09T08:13:05.401Z,50
2017-03-09T08:13:45.845Z,50
2017-03-09T08:16:03.686Z,45
2017-03-09T08:16:44.160Z,40
2017-03-09T08:17:24.632Z,35
2017-03-09T08:18:06.847Z,30
2017-03-09T08:20:40.236Z,30
2017-03-09T08:21:20.717Z,35
2017-03-09T08:22:01.153Z,45
2017-03-09T08:22:41.601Z,45
2017-03-09T08:23:21.955Z,55
2017-03-09T08:24:02.447Z,60
2017-03-09T08:24:43.144Z,70
2017-03-09T08:25:23.568Z,75
2017-03-09T08:26:04.055Z,80
2017-03-09T08:26:44.476Z,80
2017-03-09T08:27:24.967Z,80
2017-03-09T08:28:06.720Z,65
2017-03-09T08:28:47.175Z,55
2017-03-09T08:29:27.578Z,40
2017-03-09T08:30:08.203Z,35
2017-03-09T08:32:46.540Z,35
2017-03-09T08:33:27.025Z,35
2017-03-09T08:34:07.443Z,40
2017-03-09T08:34:47.825Z,40
2017-03-09T08:35:28.259Z,50
2017-03-09T08:36:08.653Z,55
2017-03-09T08:36:49.165Z,60
2017-03-09T08:37:29.525Z,55
2017-03-09T08:41:14.837Z,40
2017-03-09T08:41:55.237Z,40
2017-03-09T08:42:35.678Z,45
2017-03-09T08:43:16.057Z,45
2017-03-09T08:43:56.446Z,45
2017-03-09T08:44:36.960Z,45
2017-03-09T08:45:17.461Z,50
2017-03-09T08:45:57.879Z,50
2017-03-09T08:48:10.531Z,45
2017-03-09T08:48:50.916Z,45
2017-03-09T08:49:31.329Z,45
2017-03-09T08:50:12.322Z,55
2017-03-09T08:50:52.802Z,60
2017-03-09T08:51:33.314Z,55
2017-03-09T08:52:13.708Z,60
2017-03-09T08:52:54.427Z,60
2017-03-09T08:53:38.632Z,65
2017-03-09T08:55:51.446Z,70
2017-03-09T08:56:31.855Z,80
2017-03-09T08:57:12.241Z,70
2017-03-09T08:57:52.710Z,80
2017-03-09T08:58:33.208Z,85
2017-03-09T08:59:13.639Z,80
2017-03-09T08:59:54.109Z,80
2017-03-09T09:00:34.531Z,90
2017-03-09T09:01:15.073Z,85
2017-03-09T09:03:27.897Z,80
2017-03-09T09:04:08.364Z,80
2017-03-09T09:04:48.871Z,80
2017-03-09T09:05:29.636Z,80
2017-03-09T09:06:10.023Z,80
2017-03-09T09:06:50.463Z,85
2017-03-09T09:07:31.010Z,80
2017-03-09T09:08:11.484Z,70
2017-03-09T09:08:51.917Z,75
2017-03-09T09:09:32.365Z,70
2017-03-09T09:12:10.376Z,65
2017-03-09T09:12:50.809Z,75
2017-03-09T09:13:31.253Z,90
2017-03-09T09:16:09.203Z,90
2017-03-09T09:16:49.755Z,90
2017-03-09T09:17:30.323Z,90
2017-03-09T09:18:10.647Z,105
2017-03-09T09:20:28.386Z,105
2017-03-09T09:21:08.842Z,110
2017-03-09T09:21:49.266Z,110
2017-03-09T09:22:29.918Z,105
2017-03-09T09:23:10.452Z,100
2017-03-09T09:23:50.883Z,105
2017-03-09T09:24:31.480Z,105
2017-03-09T09:25:11.935Z,105
2017-03-09T09:27:29.706Z,120
2017-03-09T09:28:10.152Z,120
2017-03-09T09:28:54.068Z,130
2017-03-09T09:29:34.544Z,130
2017-03-09T09:30:14.949Z,135
2017-03-09T09:30:55.550Z,140
2017-03-09T09:31:35.960Z,130
2017-03-09T09:32:16.538Z,145
2017-03-09T09:32:57.021Z,145
2017-03-09T09:33:37.409Z,140
2017-03-09T09:34:17.881Z,140
2017-03-09T09:34:58.312Z,135
2017-03-09T09:35:38.790Z,150
2017-03-09T09:36:19.267Z,150
2017-03-09T09:36:59.814Z,140
2017-03-09T09:37:40.111Z,135
2017-03-09T09:38:20.521Z,150
2017-03-09T09:39:00.972Z,165
2017-03-09T09:39:41.478Z,170
2017-03-09T09:40:21.891Z,185
2017-03-09T09:41:02.342Z,190
2017-03-09T09:41:42.786Z,195
2017-03-09T09:44:01.422Z,205
2017-03-09T09:44:41.622Z,195
2017-03-09T09:45:22.106Z,200
2017-03-09T09:46:02.466Z,210
2017-03-09T09:46:42.935Z,210
2017-03-09T09:49:10.805Z,200
2017-03-09T09:49:51.249Z,195
2017-03-09T09:50:31.702Z,185
2017-03-09T09:51:12.091Z,185
2017-03-09T09:51:52.557Z,180
2017-03-09T09:52:32.921Z,175
2017-03-09T09:55:05.834Z,200
2017-03-09T09:55:46.270Z,205
2017-03-09T09:56:26.721Z,195
2017-03-09T09:57:07.098Z,190
2017-03-09T09:57:47.523Z,185
2017-03-09T09:58:27.890Z,180
2017-03-09T09:59:08.337Z,190
2017-03-09T09:59:48.745Z,190
2017-03-09T10:00:30.537Z,185
2017-03-09T10:01:11.089Z,180
2017-03-09T10:01:51.535Z,180
2017-03-09T10:02:32.016Z,170
2017-03-09T10:03:12.445Z,160
2017-03-09T10:03:52.897Z,165
2017-03-09T10:04:33.351Z,165
2017-03-09T10:06:46.038Z,155
2017-03-09T10:09:19.210Z,165
2017-03-09T10:10:00.240Z,170
2017-03-09T10:10:40.666Z,170
2017-03-09T10:11:21.147Z,165
2017-03-09T10:12:01.570Z,165
2017-03-09T10:12:42.006Z,165
2017-03-09T10:14:59.817Z,185
2017-03-09T10:15:40.288Z,185
2017-03-09T10:16:20.682Z,180
2017-03-09T10:17:01.068Z,165
2017-03-09T10:17:41.563Z,175
2017-03-09T10:18:22.014Z,185
2017-03-09T10:19:02.431Z,170
2017-03-09T10:19:42.834Z,150
2017-03-09T10:20:23.241Z,155
2017-03-09T10:21:03.752Z,165
2017-03-09T10:21:44.178Z,175
2017-03-09T10:22:24.623Z,195
2017-03-09T10:23:05.069Z,210
2017-03-09T10:23:45.565Z,210
2017-03-09T10:24:26.039Z,215
2017-03-09T10:25:06.491Z,220
2017-03-09T10:25:46.946Z,220
2017-03-09T10:26:27.466Z,220
2017-03-09T10:27:07.913Z,220
2017-03-09T10:27:48.333Z,235
2017-03-09T10:28:28.779Z,235
2017-03-09T10:29:09.201Z,245
2017-03-09T10:29:49.758Z,245
2017-03-09T10:30:30.168Z,250
2017-03-09T10:31:10.601Z,250
2017-03-09T10:31:51.077Z,255
2017-03-09T10:32:31.494Z,260
2017-03-09T10:33:11.894Z,250
2017-03-09T10:33:52.435Z,235
2017-03-09T10:34:32.865Z,230
2017-03-09T10:35:13.344Z,215
2017-03-09T10:35:53.834Z,190
2017-03-09T10:36:34.338Z,170
2017-03-09T10:37:14.783Z,165
2017-03-09T10:37:55.180Z,180
2017-03-09T10:38:35.648Z,195
2017-03-09T10:39:16.079Z,190
2017-03-09T10:39:57.129Z,205
2017-03-09T10:40:37.615Z,185
2017-03-09T10:41:18.068Z,190
2017-03-09T10:41:58.526Z,225
2017-03-09T10:42:38.907Z,190
2017-03-09T10:44:51.629Z,210
2017-03-09T10:45:32.062Z,210
2017-03-09T10:46:12.514Z,220
2017-03-09T10:46:52.997Z,200
2017-03-09T10:47:33.478Z,200
2017-03-09T10:48:13.936Z,185
2017-03-09T10:48:54.380Z,170
2017-03-09T10:49:34.880Z,155
2017-03-09T10:50:15.324Z,160
2017-03-09T10:50:55.760Z,165
2017-03-09T10:51:36.310Z,165
2017-03-09T10:52:16.669Z,165
2017-03-09T10:52:57.126Z,175
2017-03-09T10:53:37.595Z,170
2017-03-09T10:54:18.058Z,160
2017-03-09T10:54:58.540Z,165
2017-03-09T10:55:39.098Z,155
2017-03-09T10:56:19.563Z,150
2017-03-09T10:57:00.003Z,150
2017-03-09T10:57:40.454Z,145
2017-03-09T10:58:20.903Z,140
2017-03-09T10:59:01.362Z,130
2017-03-09T10:59:41.824Z,110
2017-03-09T11:00:22.287Z,120
2017-03-09T11:01:02.729Z,135
2017-03-09T11:01:43.168Z,145
2017-03-09T11:02:23.657Z,155
2017-03-09T11:03:04.203Z,140
2017-03-09T11:03:44.675Z,135
2017-03-09T11:04:25.229Z,150
2017-03-09T11:05:05.726Z,135
2017-03-09T11:05:46.237Z,125
2017-03-09T11:06:26.715Z,140
2017-03-09T11:07:07.217Z,140
2017-03-09T11:07:47.620Z,130
2017-03-09T11:08:28.037Z,120
2017-03-09T11:09:08.598Z,115
2017-03-09T11:09:49.084Z,130
2017-03-09T11:10:29.500Z,135
2017-03-09T11:11:09.942Z,135